sensor_id;sensor_type;location;lat;lon;timestamp;pressure;altitude;pressure_sealevel;temperature;humidity
19783;BME280;10051;40.294;-3.754;2023-04-10T00:02:17;94534.53;;;19.53;30.20
19783;BME280;10051;40.294;-3.754;2023-04-10T00:04:42;94565.16;;;19.68;29.79
19783;BME280;10051;40.294;-3.754;2023-04-10T00:07:08;94539.13;;;19.52;30.04
19783;BME280;10051;40.294;-3.754;2023-04-10T00:09:34;94522.28;;;19.39;30.02
19783;BME280;10051;40.294;-3.754;2023-04-10T00:12:00;94539.13;;;19.52;29.78
19783;BME280;10051;40.294;-3.754;2023-04-10T00:14:27;94535.53;;;19.48;29.72
19783;BME280;10051;40.294;-3.754;2023-04-10T00:16:53;94537.41;;;19.47;29.97
19783;BME280;10051;40.294;-3.754;2023-04-10T00:19:18;94546.31;;;19.52;29.85
19783;BME280;10051;40.294;-3.754;2023-04-10T00:21:44;94557.25;;;19.59;29.92
19783;BME280;10051;40.294;-3.754;2023-04-10T00:24:09;94565.59;;;19.57;29.81
19783;BME280;10051;40.294;-3.754;2023-04-10T00:26:35;94564.22;;;19.51;30.25
19783;BME280;10051;40.294;-3.754;2023-04-10T00:29:01;94531.84;;;19.19;30.45
19783;BME280;10051;40.294;-3.754;2023-04-10T00:31:27;94563.50;;;19.42;30.11
19783;BME280;10051;40.294;-3.754;2023-04-10T00:33:52;94557.59;;;19.36;30.27
19783;BME280;10051;40.294;-3.754;2023-04-10T00:36:18;94535.00;;;19.12;30.08
19783;BME280;10051;40.294;-3.754;2023-04-10T00:38:44;94526.53;;;19.10;30.06
19783;BME280;10051;40.294;-3.754;2023-04-10T00:41:10;94553.09;;;19.28;30.25
19783;BME280;10051;40.294;-3.754;2023-04-10T00:43:36;94529.81;;;19.16;30.33
19783;BME280;10051;40.294;-3.754;2023-04-10T00:46:03;94537.59;;;19.21;30.42
19783;BME280;10051;40.294;-3.754;2023-04-10T00:48:29;94553.22;;;19.31;30.31
19783;BME280;10051;40.294;-3.754;2023-04-10T00:50:55;94552.28;;;19.27;30.22
19783;BME280;10051;40.294;-3.754;2023-04-10T00:53:21;94552.44;;;19.31;30.24
19783;BME280;10051;40.294;-3.754;2023-04-10T00:55:48;94528.25;;;19.15;30.20
19783;BME280;10051;40.294;-3.754;2023-04-10T00:58:14;94532.03;;;19.14;30.26
19783;BME280;10051;40.294;-3.754;2023-04-10T01:00:40;94540.47;;;19.16;30.03
19783;BME280;10051;40.294;-3.754;2023-04-10T01:03:10;94525.97;;;19.05;30.29
19783;BME280;10051;40.294;-3.754;2023-04-10T01:05:42;94474.88;;;18.72;29.94
19783;BME280;10051;40.294;-3.754;2023-04-10T01:11:00;94542.03;;;19.17;29.84
19783;BME280;10051;40.294;-3.754;2023-04-10T01:13:34;94520.03;;;18.99;29.77
19783;BME280;10051;40.294;-3.754;2023-04-10T01:16:04;94521.72;;;19.04;29.93
19783;BME280;10051;40.294;-3.754;2023-04-10T01:18:38;94529.34;;;19.14;29.95
19783;BME280;10051;40.294;-3.754;2023-04-10T01:21:07;94518.41;;;19.07;29.97
19783;BME280;10051;40.294;-3.754;2023-04-10T01:26:41;94533.31;;;19.08;30.27
19783;BME280;10051;40.294;-3.754;2023-04-10T01:29:13;94522.38;;;19.00;30.30
19783;BME280;10051;40.294;-3.754;2023-04-10T01:31:53;94520.94;;;19.03;30.19
19783;BME280;10051;40.294;-3.754;2023-04-10T01:34:26;94524.59;;;18.98;30.26
19783;BME280;10051;40.294;-3.754;2023-04-10T01:37:01;94363.47;;;17.93;30.22
19783;BME280;10051;40.294;-3.754;2023-04-10T01:39:29;94516.28;;;18.91;30.28
19783;BME280;10051;40.294;-3.754;2023-04-10T01:41:55;94501.13;;;18.83;30.24
19783;BME280;10051;40.294;-3.754;2023-04-10T01:44:27;94516.13;;;18.96;30.21
19783;BME280;10051;40.294;-3.754;2023-04-10T01:46:54;94448.97;;;18.52;30.17
19783;BME280;10051;40.294;-3.754;2023-04-10T01:49:23;94516.59;;;18.98;29.92
19783;BME280;10051;40.294;-3.754;2023-04-10T01:51:50;94521.47;;;18.96;29.95
19783;BME280;10051;40.294;-3.754;2023-04-10T01:54:16;94513.94;;;18.98;30.18
19783;BME280;10051;40.294;-3.754;2023-04-10T01:56:42;94447.25;;;18.56;30.13
19783;BME280;10051;40.294;-3.754;2023-04-10T01:59:08;94512.06;;;18.90;30.22
19783;BME280;10051;40.294;-3.754;2023-04-10T02:01:34;94471.94;;;18.65;30.25
19783;BME280;10051;40.294;-3.754;2023-04-10T02:04:01;94455.41;;;18.51;30.38
19783;BME280;10051;40.294;-3.754;2023-04-10T02:09:16;94373.44;;;18.05;30.20
19783;BME280;10051;40.294;-3.754;2023-04-10T02:11:50;94492.31;;;18.91;30.03
19783;BME280;10051;40.294;-3.754;2023-04-10T02:14:20;94494.06;;;18.96;30.22
19783;BME280;10051;40.294;-3.754;2023-04-10T02:16:48;94466.25;;;18.76;30.29
19783;BME280;10051;40.294;-3.754;2023-04-10T02:19:17;94455.31;;;18.68;30.37
19783;BME280;10051;40.294;-3.754;2023-04-10T02:21:46;94496.22;;;18.94;30.41
19783;BME280;10051;40.294;-3.754;2023-04-10T02:24:12;94475.28;;;18.83;30.32
19783;BME280;10051;40.294;-3.754;2023-04-10T02:26:48;94470.44;;;18.77;30.36
19783;BME280;10051;40.294;-3.754;2023-04-10T02:29:13;94487.63;;;18.88;30.54
19783;BME280;10051;40.294;-3.754;2023-04-10T02:31:40;94459.09;;;18.67;30.65
19783;BME280;10051;40.294;-3.754;2023-04-10T02:34:06;94489.06;;;18.85;30.57
19783;BME280;10051;40.294;-3.754;2023-04-10T02:36:36;94491.13;;;18.80;30.75
19783;BME280;10051;40.294;-3.754;2023-04-10T02:39:02;94492.22;;;18.79;30.67
19783;BME280;10051;40.294;-3.754;2023-04-10T02:41:28;94495.09;;;18.73;30.65
19783;BME280;10051;40.294;-3.754;2023-04-10T02:43:54;94464.84;;;18.48;30.76
19783;BME280;10051;40.294;-3.754;2023-04-10T02:46:19;94497.13;;;18.68;30.60
19783;BME280;10051;40.294;-3.754;2023-04-10T02:48:45;94499.03;;;18.67;30.71
19783;BME280;10051;40.294;-3.754;2023-04-10T02:51:10;94496.56;;;18.62;30.83
19783;BME280;10051;40.294;-3.754;2023-04-10T02:53:36;94453.75;;;18.37;30.71
19783;BME280;10051;40.294;-3.754;2023-04-10T02:56:02;94449.84;;;18.35;30.71
19783;BME280;10051;40.294;-3.754;2023-04-10T02:58:31;94497.78;;;18.65;30.99
19783;BME280;10051;40.294;-3.754;2023-04-10T03:00:56;94489.66;;;18.61;30.92
19783;BME280;10051;40.294;-3.754;2023-04-10T03:03:22;94437.88;;;18.20;31.00
19783;BME280;10051;40.294;-3.754;2023-04-10T03:05:48;94469.25;;;18.35;31.23
19783;BME280;10051;40.294;-3.754;2023-04-10T03:08:15;94485.22;;;18.35;31.17
19783;BME280;10051;40.294;-3.754;2023-04-10T03:10:45;94501.94;;;18.45;31.36
19783;BME280;10051;40.294;-3.754;2023-04-10T03:13:13;94449.50;;;18.06;31.44
19783;BME280;10051;40.294;-3.754;2023-04-10T03:15:38;94492.94;;;18.28;31.54
19783;BME280;10051;40.294;-3.754;2023-04-10T03:18:04;94508.41;;;18.35;31.59
19783;BME280;10051;40.294;-3.754;2023-04-10T03:20:34;94502.03;;;18.27;31.84
19783;BME280;10051;40.294;-3.754;2023-04-10T03:23:00;94488.59;;;18.15;31.95
19783;BME280;10051;40.294;-3.754;2023-04-10T03:25:27;94500.03;;;18.15;31.73
19783;BME280;10051;40.294;-3.754;2023-04-10T03:27:53;94422.56;;;17.51;32.13
19783;BME280;10051;40.294;-3.754;2023-04-10T03:30:18;94504.44;;;18.02;32.00
19783;BME280;10051;40.294;-3.754;2023-04-10T03:32:45;94494.91;;;17.92;32.12
19783;BME280;10051;40.294;-3.754;2023-04-10T03:35:10;94492.75;;;17.86;32.29
19783;BME280;10051;40.294;-3.754;2023-04-10T03:37:36;94493.34;;;18.00;32.21
19783;BME280;10051;40.294;-3.754;2023-04-10T03:40:06;94515.34;;;18.18;32.15
19783;BME280;10051;40.294;-3.754;2023-04-10T03:42:32;94468.97;;;17.80;32.35
19783;BME280;10051;40.294;-3.754;2023-04-10T03:44:58;94506.47;;;18.05;32.27
19783;BME280;10051;40.294;-3.754;2023-04-10T03:47:25;94496.00;;;18.00;32.28
19783;BME280;10051;40.294;-3.754;2023-04-10T03:49:51;94461.31;;;17.70;32.42
19783;BME280;10051;40.294;-3.754;2023-04-10T03:52:17;94526.34;;;17.99;32.68
19783;BME280;10051;40.294;-3.754;2023-04-10T03:54:42;94516.97;;;18.02;32.60
19783;BME280;10051;40.294;-3.754;2023-04-10T03:57:08;94499.91;;;17.94;32.67
19783;BME280;10051;40.294;-3.754;2023-04-10T03:59:33;94511.63;;;17.93;32.62
19783;BME280;10051;40.294;-3.754;2023-04-10T04:01:59;94500.88;;;17.80;32.74
19783;BME280;10051;40.294;-3.754;2023-04-10T04:04:24;94526.50;;;17.94;32.65
19783;BME280;10051;40.294;-3.754;2023-04-10T04:06:50;94508.53;;;17.82;32.70
19783;BME280;10051;40.294;-3.754;2023-04-10T04:09:16;94492.91;;;17.72;32.69
19783;BME280;10051;40.294;-3.754;2023-04-10T04:11:42;94525.25;;;17.91;32.75
19783;BME280;10051;40.294;-3.754;2023-04-10T04:14:07;94497.59;;;17.75;32.62
19783;BME280;10051;40.294;-3.754;2023-04-10T04:16:33;94527.75;;;17.96;32.56
19783;BME280;10051;40.294;-3.754;2023-04-10T04:18:58;94508.38;;;17.69;33.17
19783;BME280;10051;40.294;-3.754;2023-04-10T04:21:24;94411.06;;;17.03;33.11
19783;BME280;10051;40.294;-3.754;2023-04-10T04:23:50;94489.97;;;17.64;32.97
19783;BME280;10051;40.294;-3.754;2023-04-10T04:26:15;94492.31;;;17.57;33.32
19783;BME280;10051;40.294;-3.754;2023-04-10T04:28:41;94399.63;;;16.85;33.72
19783;BME280;10051;40.294;-3.754;2023-04-10T04:31:07;94538.44;;;17.70;33.57
19783;BME280;10051;40.294;-3.754;2023-04-10T04:33:32;94483.09;;;17.37;33.47
19783;BME280;10051;40.294;-3.754;2023-04-10T04:35:58;94497.78;;;17.43;33.69
19783;BME280;10051;40.294;-3.754;2023-04-10T04:38:23;94417.72;;;16.83;33.83
19783;BME280;10051;40.294;-3.754;2023-04-10T04:40:49;94529.97;;;17.50;34.00
19783;BME280;10051;40.294;-3.754;2023-04-10T04:43:14;94500.28;;;17.31;33.90
19783;BME280;10051;40.294;-3.754;2023-04-10T04:45:40;94524.81;;;17.45;34.23
19783;BME280;10051;40.294;-3.754;2023-04-10T04:48:06;94448.81;;;16.83;34.46
19783;BME280;10051;40.294;-3.754;2023-04-10T04:50:31;94541.56;;;17.37;34.33
19783;BME280;10051;40.294;-3.754;2023-04-10T04:52:57;94423.28;;;16.46;34.62
19783;BME280;10051;40.294;-3.754;2023-04-10T04:55:25;94501.22;;;17.00;34.50
19783;BME280;10051;40.294;-3.754;2023-04-10T04:57:50;94546.25;;;17.22;34.82
19783;BME280;10051;40.294;-3.754;2023-04-10T05:00:16;94532.47;;;17.20;34.58
19783;BME280;10051;40.294;-3.754;2023-04-10T05:02:41;94515.88;;;17.06;34.60
19783;BME280;10051;40.294;-3.754;2023-04-10T05:05:07;94482.41;;;16.87;34.37
19783;BME280;10051;40.294;-3.754;2023-04-10T05:07:33;94499.28;;;16.91;34.44
19783;BME280;10051;40.294;-3.754;2023-04-10T05:09:58;94531.22;;;17.09;34.96
19783;BME280;10051;40.294;-3.754;2023-04-10T05:12:24;94433.09;;;16.37;34.80
19783;BME280;10051;40.294;-3.754;2023-04-10T05:14:50;94541.69;;;17.05;34.88
19783;BME280;10051;40.294;-3.754;2023-04-10T05:17:16;94559.06;;;17.20;35.10
19783;BME280;10051;40.294;-3.754;2023-04-10T05:19:41;94535.75;;;17.00;35.40
19783;BME280;10051;40.294;-3.754;2023-04-10T05:22:07;94518.31;;;16.76;36.01
19783;BME280;10051;40.294;-3.754;2023-04-10T05:24:33;94510.94;;;16.64;36.59
19783;BME280;10051;40.294;-3.754;2023-04-10T05:26:59;94510.59;;;16.48;36.59
19783;BME280;10051;40.294;-3.754;2023-04-10T05:29:25;94566.31;;;16.88;36.48
19783;BME280;10051;40.294;-3.754;2023-04-10T05:31:50;94566.47;;;16.92;36.49
19783;BME280;10051;40.294;-3.754;2023-04-10T05:34:16;94559.09;;;16.80;36.78
19783;BME280;10051;40.294;-3.754;2023-04-10T05:36:42;94545.81;;;16.80;36.38
19783;BME280;10051;40.294;-3.754;2023-04-10T05:39:07;94509.38;;;16.63;36.14
19783;BME280;10051;40.294;-3.754;2023-04-10T05:41:33;94564.41;;;16.89;36.91
19783;BME280;10051;40.294;-3.754;2023-04-10T05:43:59;94554.03;;;16.61;37.57
19783;BME280;10051;40.294;-3.754;2023-04-10T05:46:24;94526.16;;;16.41;37.52
19783;BME280;10051;40.294;-3.754;2023-04-10T05:48:50;94575.97;;;16.75;37.64
19783;BME280;10051;40.294;-3.754;2023-04-10T05:51:15;94570.66;;;16.44;37.90
19783;BME280;10051;40.294;-3.754;2023-04-10T05:53:41;94576.84;;;16.30;38.25
19783;BME280;10051;40.294;-3.754;2023-04-10T05:56:07;94553.19;;;16.11;38.89
19783;BME280;10051;40.294;-3.754;2023-04-10T05:58:33;94532.44;;;15.90;38.82
19783;BME280;10051;40.294;-3.754;2023-04-10T06:00:58;94512.44;;;15.84;38.70
19783;BME280;10051;40.294;-3.754;2023-04-10T06:03:24;94575.16;;;16.34;38.63
19783;BME280;10051;40.294;-3.754;2023-04-10T06:05:52;94550.41;;;16.16;38.89
19783;BME280;10051;40.294;-3.754;2023-04-10T06:08:18;94537.13;;;16.16;38.65
19783;BME280;10051;40.294;-3.754;2023-04-10T06:10:45;94565.66;;;16.42;38.68
19783;BME280;10051;40.294;-3.754;2023-04-10T06:13:11;94564.16;;;16.50;38.58
19783;BME280;10051;40.294;-3.754;2023-04-10T06:15:37;94567.28;;;16.52;38.35
19783;BME280;10051;40.294;-3.754;2023-04-10T06:18:02;94593.78;;;16.84;38.22
19783;BME280;10051;40.294;-3.754;2023-04-10T06:20:30;94599.31;;;16.96;38.42
19783;BME280;10051;40.294;-3.754;2023-04-10T06:22:57;94561.88;;;16.66;38.29
19783;BME280;10051;40.294;-3.754;2023-04-10T06:25:23;94604.56;;;16.87;38.47
19783;BME280;10051;40.294;-3.754;2023-04-10T06:27:49;94559.78;;;16.54;38.25
19783;BME280;10051;40.294;-3.754;2023-04-10T06:30:15;94580.31;;;16.40;39.34
19783;BME280;10051;40.294;-3.754;2023-04-10T06:32:40;94604.75;;;16.59;39.17
19783;BME280;10051;40.294;-3.754;2023-04-10T06:35:06;94543.44;;;16.29;39.05
19783;BME280;10051;40.294;-3.754;2023-04-10T06:37:32;94621.72;;;16.81;38.53
19783;BME280;10051;40.294;-3.754;2023-04-10T06:40:13;94621.13;;;16.84;38.94
19783;BME280;10051;40.294;-3.754;2023-04-10T06:42:39;94556.50;;;16.57;38.47
19783;BME280;10051;40.294;-3.754;2023-04-10T06:45:06;94633.72;;;17.10;38.60
19783;BME280;10051;40.294;-3.754;2023-04-10T06:47:32;94629.38;;;17.14;38.68
19783;BME280;10051;40.294;-3.754;2023-04-10T06:49:58;94610.28;;;17.03;38.59
19783;BME280;10051;40.294;-3.754;2023-04-10T06:52:24;94615.19;;;17.19;37.88
19783;BME280;10051;40.294;-3.754;2023-04-10T06:54:50;94620.03;;;17.26;37.59
19783;BME280;10051;40.294;-3.754;2023-04-10T06:57:15;94639.13;;;17.45;37.63
19783;BME280;10051;40.294;-3.754;2023-04-10T06:59:41;94569.19;;;17.09;38.14
19783;BME280;10051;40.294;-3.754;2023-04-10T07:02:07;94639.47;;;17.70;37.70
19783;BME280;10051;40.294;-3.754;2023-04-10T07:04:33;94642.94;;;17.79;38.15
19783;BME280;10051;40.294;-3.754;2023-04-10T07:06:58;94642.31;;;17.82;38.29
19783;BME280;10051;40.294;-3.754;2023-04-10T07:09:25;94642.94;;;17.79;38.18
19783;BME280;10051;40.294;-3.754;2023-04-10T07:11:51;94650.44;;;17.77;38.79
19783;BME280;10051;40.294;-3.754;2023-04-10T07:14:17;94630.88;;;17.64;37.88
19783;BME280;10051;40.294;-3.754;2023-04-10T07:16:43;94633.69;;;17.77;38.02
19783;BME280;10051;40.294;-3.754;2023-04-10T07:19:09;94636.06;;;17.78;37.90
19783;BME280;10051;40.294;-3.754;2023-04-10T07:21:35;94645.72;;;17.92;37.74
19783;BME280;10051;40.294;-3.754;2023-04-10T07:24:01;94649.66;;;17.94;38.13
19783;BME280;10051;40.294;-3.754;2023-04-10T07:26:27;94630.72;;;17.87;37.78
19783;BME280;10051;40.294;-3.754;2023-04-10T07:28:52;94642.78;;;18.02;37.98
19783;BME280;10051;40.294;-3.754;2023-04-10T07:31:18;94631.66;;;17.91;38.60
19783;BME280;10051;40.294;-3.754;2023-04-10T07:33:44;94622.13;;;17.99;38.18
19783;BME280;10051;40.294;-3.754;2023-04-10T07:36:11;94647.31;;;18.28;37.85
19783;BME280;10051;40.294;-3.754;2023-04-10T07:38:37;94672.00;;;18.55;37.53
19783;BME280;10051;40.294;-3.754;2023-04-10T07:41:08;94651.66;;;18.50;37.30
19783;BME280;10051;40.294;-3.754;2023-04-10T07:43:39;94654.94;;;18.56;38.04
19783;BME280;10051;40.294;-3.754;2023-04-10T07:46:05;94682.63;;;18.72;37.53
19783;BME280;10051;40.294;-3.754;2023-04-10T07:48:31;94655.06;;;18.68;37.84
19783;BME280;10051;40.294;-3.754;2023-04-10T07:50:57;94694.78;;;19.00;37.71
19783;BME280;10051;40.294;-3.754;2023-04-10T07:53:23;94664.38;;;18.92;37.16
19783;BME280;10051;40.294;-3.754;2023-04-10T07:55:48;94693.69;;;19.40;36.57
19783;BME280;10051;40.294;-3.754;2023-04-10T07:58:14;94691.13;;;19.52;35.98
19783;BME280;10051;40.294;-3.754;2023-04-10T08:00:40;94682.47;;;19.55;35.54
19783;BME280;10051;40.294;-3.754;2023-04-10T08:03:06;94689.59;;;19.72;35.08
19783;BME280;10051;40.294;-3.754;2023-04-10T08:05:32;94670.75;;;19.69;35.29
19783;BME280;10051;40.294;-3.754;2023-04-10T08:07:58;94693.69;;;20.00;34.73
19783;BME280;10051;40.294;-3.754;2023-04-10T08:10:24;94684.81;;;20.08;33.95
19783;BME280;10051;40.294;-3.754;2023-04-10T08:12:50;94682.84;;;20.17;33.63
19783;BME280;10051;40.294;-3.754;2023-04-10T08:15:16;94682.19;;;20.20;33.35
19783;BME280;10051;40.294;-3.754;2023-04-10T08:17:42;94680.19;;;20.17;33.41
19783;BME280;10051;40.294;-3.754;2023-04-10T08:20:09;94656.03;;;19.93;33.59
19783;BME280;10051;40.294;-3.754;2023-04-10T08:22:35;94684.94;;;20.12;32.89
19783;BME280;10051;40.294;-3.754;2023-04-10T08:25:01;94682.19;;;20.20;32.55
19783;BME280;10051;40.294;-3.754;2023-04-10T08:27:27;94684.41;;;20.18;32.45
19783;BME280;10051;40.294;-3.754;2023-04-10T08:29:54;94666.53;;;19.98;32.39
19783;BME280;10051;40.294;-3.754;2023-04-10T08:32:20;94676.59;;;20.13;32.39
19783;BME280;10051;40.294;-3.754;2023-04-10T08:34:46;94683.75;;;20.21;32.37
19783;BME280;10051;40.294;-3.754;2023-04-10T08:37:12;94671.06;;;20.18;31.99
19783;BME280;10051;40.294;-3.754;2023-04-10T08:39:40;94647.22;;;20.13;32.15
19783;BME280;10051;40.294;-3.754;2023-04-10T08:42:06;94673.78;;;20.31;31.98
19783;BME280;10051;40.294;-3.754;2023-04-10T08:44:32;94698.59;;;20.53;31.72
19783;BME280;10051;40.294;-3.754;2023-04-10T08:47:01;94716.81;;;20.50;31.13
19783;BME280;10051;40.294;-3.754;2023-04-10T08:52:19;94643.00;;;20.12;31.41
19783;BME280;10051;40.294;-3.754;2023-04-10T08:54:47;94608.84;;;19.84;31.07
19783;BME280;10051;40.294;-3.754;2023-04-10T08:57:15;94670.91;;;20.36;30.98
19783;BME280;10051;40.294;-3.754;2023-04-10T08:59:45;94729.69;;;20.70;30.80
19783;BME280;10051;40.294;-3.754;2023-04-10T09:02:10;94722.13;;;20.72;30.93
19783;BME280;10051;40.294;-3.754;2023-04-10T09:04:36;94683.53;;;20.48;30.84
19783;BME280;10051;40.294;-3.754;2023-04-10T09:07:02;94717.84;;;20.79;31.03
19783;BME280;10051;40.294;-3.754;2023-04-10T09:09:27;94696.38;;;20.67;30.99
19783;BME280;10051;40.294;-3.754;2023-04-10T09:11:58;94678.09;;;20.57;30.95
19783;BME280;10051;40.294;-3.754;2023-04-10T09:14:32;94748.19;;;20.96;30.91
19783;BME280;10051;40.294;-3.754;2023-04-10T09:17:23;94718.31;;;20.94;30.96
19783;BME280;10051;40.294;-3.754;2023-04-10T09:19:53;94699.16;;;20.92;30.63
19783;BME280;10051;40.294;-3.754;2023-04-10T09:22:34;94752.91;;;21.36;30.78
19783;BME280;10051;40.294;-3.754;2023-04-10T09:25:02;94717.91;;;21.29;30.37
19783;BME280;10051;40.294;-3.754;2023-04-10T09:27:30;94688.06;;;21.27;30.99
19783;BME280;10051;40.294;-3.754;2023-04-10T09:29:57;94703.75;;;21.41;29.74
19783;BME280;10051;40.294;-3.754;2023-04-10T09:32:43;94717.38;;;21.61;29.94
19783;BME280;10051;40.294;-3.754;2023-04-10T09:35:11;94740.44;;;21.90;29.51
19783;BME280;10051;40.294;-3.754;2023-04-10T09:37:37;94742.53;;;22.09;29.16
19783;BME280;10051;40.294;-3.754;2023-04-10T09:40:06;94750.75;;;22.29;29.13
19783;BME280;10051;40.294;-3.754;2023-04-10T09:42:43;94745.69;;;22.40;29.14
19783;BME280;10051;40.294;-3.754;2023-04-10T09:45:09;94754.88;;;22.67;27.70
19783;BME280;10051;40.294;-3.754;2023-04-10T09:47:34;94736.41;;;22.78;27.98
19783;BME280;10051;40.294;-3.754;2023-04-10T09:50:00;94730.03;;;22.99;27.98
19783;BME280;10051;40.294;-3.754;2023-04-10T09:52:28;94707.66;;;23.07;28.13
19783;BME280;10051;40.294;-3.754;2023-04-10T09:55:03;94738.50;;;23.45;27.33
19783;BME280;10051;40.294;-3.754;2023-04-10T09:57:32;94752.34;;;23.64;26.77
19783;BME280;10051;40.294;-3.754;2023-04-10T10:00:03;94747.63;;;23.76;26.86
19783;BME280;10051;40.294;-3.754;2023-04-10T10:02:30;94740.66;;;23.91;27.07
19783;BME280;10051;40.294;-3.754;2023-04-10T10:04:58;94743.00;;;24.09;27.14
19783;BME280;10051;40.294;-3.754;2023-04-10T10:07:26;94721.59;;;24.13;25.92
19783;BME280;10051;40.294;-3.754;2023-04-10T10:09:54;94720.38;;;24.10;26.26
19783;BME280;10051;40.294;-3.754;2023-04-10T10:13:14;94763.03;;;24.51;26.32
19783;BME280;10051;40.294;-3.754;2023-04-10T10:20:48;94767.47;;;24.79;26.54
19783;BME280;10051;40.294;-3.754;2023-04-10T10:23:14;94746.88;;;24.67;26.77
19783;BME280;10051;40.294;-3.754;2023-04-10T10:25:40;94726.41;;;24.62;26.98
19783;BME280;10051;40.294;-3.754;2023-04-10T10:28:11;94738.19;;;24.74;26.68
19783;BME280;10051;40.294;-3.754;2023-04-10T10:30:37;94769.63;;;25.13;26.25
19783;BME280;10051;40.294;-3.754;2023-04-10T10:33:05;94740.22;;;24.80;26.05
19783;BME280;10051;40.294;-3.754;2023-04-10T10:35:34;94743.56;;;24.74;26.24
19783;BME280;10051;40.294;-3.754;2023-04-10T10:38:02;94766.06;;;24.85;26.25
19783;BME280;10051;40.294;-3.754;2023-04-10T10:46:08;94766.38;;;24.64;25.48
19783;BME280;10051;40.294;-3.754;2023-04-10T10:48:35;94741.97;;;24.33;25.85
19783;BME280;10051;40.294;-3.754;2023-04-10T10:51:03;94699.19;;;24.05;25.35
19783;BME280;10051;40.294;-3.754;2023-04-10T10:58:46;94705.75;;;24.08;26.17
19783;BME280;10051;40.294;-3.754;2023-04-10T11:01:12;94701.59;;;24.10;26.13
19783;BME280;10051;40.294;-3.754;2023-04-10T11:03:41;94715.50;;;24.16;25.60
19783;BME280;10051;40.294;-3.754;2023-04-10T11:06:12;94718.63;;;24.18;25.11
19783;BME280;10051;40.294;-3.754;2023-04-10T11:08:39;94740.41;;;24.32;25.29
19783;BME280;10051;40.294;-3.754;2023-04-10T11:16:20;94731.38;;;24.41;25.21
19783;BME280;10051;40.294;-3.754;2023-04-10T11:21:17;94719.91;;;24.44;24.90
19783;BME280;10051;40.294;-3.754;2023-04-10T11:31:46;94726.44;;;25.05;25.09
19783;BME280;10051;40.294;-3.754;2023-04-10T11:34:19;94691.06;;;25.03;23.87
19783;BME280;10051;40.294;-3.754;2023-04-10T11:36:45;94710.44;;;25.36;23.79
19783;BME280;10051;40.294;-3.754;2023-04-10T11:39:14;94686.97;;;25.36;23.64
19783;BME280;10051;40.294;-3.754;2023-04-10T11:41:45;94705.81;;;25.60;23.91
19783;BME280;10051;40.294;-3.754;2023-04-10T11:44:33;94692.03;;;25.65;22.51
19783;BME280;10051;40.294;-3.754;2023-04-10T11:47:03;94707.75;;;25.90;22.05
19783;BME280;10051;40.294;-3.754;2023-04-10T11:49:32;94708.69;;;26.01;23.50
19783;BME280;10051;40.294;-3.754;2023-04-10T11:51:58;94664.72;;;25.93;23.00
19783;BME280;10051;40.294;-3.754;2023-04-10T11:54:25;94661.72;;;25.98;22.40
19783;BME280;10051;40.294;-3.754;2023-04-10T11:57:05;94668.72;;;26.07;22.56
19783;BME280;10051;40.294;-3.754;2023-04-10T11:59:33;94684.06;;;26.30;22.37
19783;BME280;10051;40.294;-3.754;2023-04-10T12:02:06;94678.78;;;26.40;22.36
19783;BME280;10051;40.294;-3.754;2023-04-10T12:04:35;94676.19;;;26.51;22.18
19783;BME280;10051;40.294;-3.754;2023-04-10T12:07:01;94669.34;;;26.57;22.22
19783;BME280;10051;40.294;-3.754;2023-04-10T12:09:27;94686.88;;;26.78;21.92
19783;BME280;10051;40.294;-3.754;2023-04-10T12:12:01;94671.06;;;26.77;21.72
19783;BME280;10051;40.294;-3.754;2023-04-10T12:14:34;94679.00;;;26.96;22.35
19783;BME280;10051;40.294;-3.754;2023-04-10T12:17:01;94662.78;;;26.93;20.50
19783;BME280;10051;40.294;-3.754;2023-04-10T12:19:27;94624.41;;;26.72;21.32
19783;BME280;10051;40.294;-3.754;2023-04-10T12:21:54;94660.50;;;26.98;20.99
19783;BME280;10051;40.294;-3.754;2023-04-10T12:24:50;94668.34;;;27.14;21.04
19783;BME280;10051;40.294;-3.754;2023-04-10T12:27:20;94665.31;;;27.20;20.99
19783;BME280;10051;40.294;-3.754;2023-04-10T12:29:48;94623.50;;;26.99;20.74
19783;BME280;10051;40.294;-3.754;2023-04-10T12:32:14;94641.03;;;27.23;20.84
19783;BME280;10051;40.294;-3.754;2023-04-10T12:34:40;94646.94;;;27.40;20.41
19783;BME280;10051;40.294;-3.754;2023-04-10T12:37:07;94653.19;;;27.48;20.43
19783;BME280;10051;40.294;-3.754;2023-04-10T12:39:34;94655.09;;;27.47;20.21
19783;BME280;10051;40.294;-3.754;2023-04-10T12:42:22;94643.19;;;27.48;20.80
19783;BME280;10051;40.294;-3.754;2023-04-10T12:44:57;94659.13;;;27.71;20.05
19783;BME280;10051;40.294;-3.754;2023-04-10T12:47:25;94637.50;;;27.68;19.47
19783;BME280;10051;40.294;-3.754;2023-04-10T12:50:10;94625.91;;;27.64;19.43
19783;BME280;10051;40.294;-3.754;2023-04-10T12:52:42;94652.69;;;27.94;18.98
19783;BME280;10051;40.294;-3.754;2023-04-10T12:55:18;94646.47;;;27.90;17.76
19783;BME280;10051;40.294;-3.754;2023-04-10T12:57:46;94642.53;;;27.73;18.38
19783;BME280;10051;40.294;-3.754;2023-04-10T13:00:15;94652.25;;;27.85;18.42
19783;BME280;10051;40.294;-3.754;2023-04-10T13:02:41;94617.41;;;27.61;17.66
19783;BME280;10051;40.294;-3.754;2023-04-10T13:05:07;94615.44;;;27.55;18.25
19783;BME280;10051;40.294;-3.754;2023-04-10T13:07:34;94642.97;;;27.79;18.72
19783;BME280;10051;40.294;-3.754;2023-04-10T13:10:00;94640.69;;;27.81;18.61
19783;BME280;10051;40.294;-3.754;2023-04-10T13:12:26;94640.28;;;27.79;18.76
19783;BME280;10051;40.294;-3.754;2023-04-10T13:14:53;94597.94;;;27.38;17.53
19783;BME280;10051;40.294;-3.754;2023-04-10T13:17:23;94637.78;;;27.48;17.69
19783;BME280;10051;40.294;-3.754;2023-04-10T13:19:49;94631.50;;;27.37;17.82
19783;BME280;10051;40.294;-3.754;2023-04-10T13:22:15;94631.09;;;27.35;18.71
19783;BME280;10051;40.294;-3.754;2023-04-10T13:24:41;94595.09;;;27.16;19.43
19783;BME280;10051;40.294;-3.754;2023-04-10T13:27:07;94626.91;;;27.44;18.39
19783;BME280;10051;40.294;-3.754;2023-04-10T13:29:38;94618.44;;;27.46;17.57
19783;BME280;10051;40.294;-3.754;2023-04-10T13:32:06;94630.16;;;27.65;17.55
19783;BME280;10051;40.294;-3.754;2023-04-10T13:34:32;94634.09;;;27.78;17.83
19783;BME280;10051;40.294;-3.754;2023-04-10T13:36:58;94629.06;;;27.80;17.64